Current Weather Conditions: station 63114

sailwx.info

Wind from 240 at 18 knots

Air temperature 4.2° C
Visibility: greater than 27.0 NM
Dewpoint -2.0° C

Last reported at 2015-Mar-03 03:00 UTC.
Time now 2015-Mar-03 04:48 UTC

Location: N 61°18' E 001°42'.
View on Google Maps.

See reports from other nearby stations

  
Tides and Currents Weather Stations Pressure Air Temp Water Temp Dewpoint Dewpoint Depression Visibility Wind Speed Wind Dir Waves Ship Positions
date/time (UTC)wind fromknots sea level pressurealtimeterstation pressurevisibilityair tempwater tempwave heightnotes
2015-Mar-03 03:00 240 18 27.0 4.2
2015-Mar-03 02:00 240 18 27.0 4.5
2015-Mar-03 01:00 230 18 27.0 4.6
2015-Mar-03 00:00 240 13 10.8 4.4
2015-Mar-02 23:00 270 14 10.8 3.8
2015-Mar-02 22:00 230 18 27.0 5.2
2015-Mar-02 21:00 200 14 10.8 3.8
2015-Mar-02 20:00 170 9 27.0 3.4
2015-Mar-02 19:00 230 2 10.8 3.0
2015-Mar-02 18:00 230 9 27.0 3.9
2015-Mar-02 17:00 270 15 10.8 3.1
2015-Mar-02 16:00 190 4 27.0 2.5
2015-Mar-02 15:00 250 17 5.4 2.4
2015-Mar-02 14:00 200 12 27.0 5.1
2015-Mar-02 13:00 220 8 27.0 5.1
2015-Mar-02 12:00 230 7 27.0 5.4
2015-Mar-02 11:00 250 7 27.0 4.7
2015-Mar-02 10:00 280 8 27.0 4.1
2015-Mar-02 09:00 280 11 27.0 4.0
2015-Mar-02 08:00 300 11 27.0 3.6
2015-Mar-02 07:00 290 14 27.0 3.7
2015-Mar-02 06:00 300 16 27.0 3.7
2015-Mar-02 05:00 310 16 27.0 3.5
2015-Mar-02 04:00 310 18 27.0 3.1
2015-Mar-02 03:00 310 19 10.8 3.4
2015-Mar-02 02:00 330 14 5.4 3.5
2015-Mar-02 01:00 300 18 5.4 4.0
2015-Mar-02 00:00 310 3 27.0 4.9
2015-Mar-01 23:00 280 6 27.0 5.2
2015-Mar-01 22:00 290 5 27.0 5.1
2015-Mar-01 21:00 240 9 27.0 6.3
2015-Mar-01 20:00 260 11 27.0 6.4
2015-Mar-01 18:00 260 17 10.8 6.1
2015-Mar-01 17:00 270 20 10.8 6.4
2015-Mar-01 16:00 270 26 10.8 6.3
2015-Mar-01 15:00 270 27 10.8 6.0
2015-Mar-01 14:00 280 22 10.8 6.0
2015-Mar-01 13:00 300 25 10.8 6.3
2015-Mar-01 10:00 150 16 5.4 6.2
2015-Mar-01 09:00 160 20 5.4 6.2
2015-Mar-01 08:00 160 22 2.2 6.9
2015-Mar-01 07:00 160 26 2.2 6.8
2015-Mar-01 06:00 150 30 2.2 6.3
2015-Mar-01 05:00 150 25 1.1 6.3
2015-Mar-01 04:00 170 18 5.4 6.2